WETTERDATEN

GESTERN
Time Temp. Taup. r.Fe. Windrich Windstärke Windböe Druck 1h Prec. 24h Prec.
00:01 4.1 0.4 77 223 1.9 3.3 1029.7 0.0000 0.0000
00:10 4 0.3 77 219 2.2 3.6 1029.6 0.0000 0.0000
00:31 3.7 0 77 224 2.2 3.3 1029.6 0.0000 0.0000
00:48 3.6 0.1 78 218 2.2 3.9 1029.4 0.0000 0.0000
00:57 3.5 0 78 220 2.2 3.6 1029.5 0.0000 0.0000
01:07 3.4 -0.1 78 221 2.2 3.9 1029.5 0.0000 0.0000
01:16 3.4 -0.1 78 223 2.2 3.6 1029.2 0.0000 0.0000
01:26 3.2 -0.2 78 221 2.2 3.3 1029.1 0.0000 0.0000
01:37 3.1 -0.3 78 223 1.9 3.6 1029.1 0.0000 0.0000
01:45 2.9 -0.5 78 220 2.2 3.1 1029.1 0.0000 0.0000
01:54 2.8 -0.6 78 221 2.2 3.3 1028.9 0.0000 0.0000
02:05 2.6 -0.6 79 221 2.2 3.3 1028.8 0.0000 0.0000
02:15 2.6 -0.6 79 220 2.2 3.3 1028.7 0.0000 0.0000
02:25 2.4 -0.8 79 220 2.2 3.3 1028.7 0.0000 0.0000
02:35 2.3 -0.8 79 219 2.2 3.6 1028.7 0.0000 0.0000
02:45 2.2 -0.9 79 222 2.2 3.9 1028.7 0.0000 0.0000
02:55 2.1 -0.9 80 220 2.2 3.6 1028.6 0.0000 0.0000
03:05 2 -1 80 222 1.9 3.3 1028.5 0.0000 0.0000
03:15 1.9 -1 80 218 2.8 3.6 1028.6 0.0000 0.0000
03:25 1.8 -1.1 80 221 2.2 3.3 1028.5 0.0000 0.0000
03:35 1.7 -1.2 80 220 1.9 3.6 1028.3 0.0000 0.0000
03:46 1.6 -1.3 80 222 1.9 3.6 1028.4 0.0000 0.0000
03:55 1.5 -1.4 80 219 2.2 3.6 1028.4 0.0000 0.0000
04:05 1.4 -1.3 81 220 2.2 3.3 1028.2 0.0000 0.0000
04:15 1.4 -1.3 81 221 2.2 3.6 1028.1 0.0000 0.0000
04:26 1.3 -1.4 81 218 2.8 3.9 1028.3 0.0000 0.0000
04:35 1.4 -1.2 82 220 2.8 3.6 1028.1 0.0000 0.0000
04:45 1.4 -1.2 82 220 1.9 3.3 1028.1 0.0000 0.0000
04:56 1.5 -1.1 82 218 2.2 3.3 1028.2 0.0000 0.0000
05:06 1.5 -0.9 83 220 2.2 3.9 1028.1 0.0000 0.0000
05:16 1.6 -0.9 83 220 2.2 3.9 1028.1 0.0000 0.0000
05:25 1.6 -0.9 83 220 2.8 3.9 1028.1 0.0000 0.0000
05:36 1.6 -1 82 218 2.8 3.6 1027.9 0.0000 0.0000
05:46 1.6 -0.9 83 218 2.2 3.3 1028.1 0.0000 0.0000
05:56 1.6 -0.9 83 218 2.2 3.3 1027.9 0.0000 0.0000
06:06 1.7 -0.8 83 220 2.2 3.6 1027.9 0.0000 0.0000
06:16 1.8 -0.7 83 220 2.2 3.3 1027.9 0.0000 0.0000
06:26 2 -0.4 84 220 1.9 3.3 1027.9 0.0000 0.0000
06:35 2.1 -0.3 84 219 2.2 3.3 1027.8 0.0000 0.0000
06:44 2.3 -0.1 84 222 1.9 3.3 1028 0.0000 0.0000
06:54 2.4 0 84 220 2.2 3.6 1027.9 0.0000 0.0000
07:05 2.6 0.2 84 222 2.2 3.6 1028 0.0000 0.0000
07:15 2.8 0.4 84 220 2.2 3.3 1027.9 0.0000 0.0000
07:24 3 0.6 84 220 2.2 3.6 1028 0.0000 0.0000
07:34 3.3 0.9 84 223 1.9 3.1 1028.1 0.0000 0.0000
07:45 3.6 1.3 85 219 1.9 3.1 1028 0.0000 0.0000
07:55 3.8 1.5 85 220 1.9 3.1 1027.9 0.0000 0.0000
08:04 4.1 1.8 85 219 1.9 3.3 1028.1 0.0000 0.0000
08:15 4.4 2.1 85 216 1.9 3.1 1028.1 0.0000 0.0000
08:25 4.7 2.4 85 216 1.7 2.8 1028 0.0000 0.0000
08:35 5 2.7 85 219 1.4 2.2 1027.9 0.0000 0.0000
08:45 5.3 3 85 218 1.4 2.2 1028.1 0.0000 0.0000
08:55 5.7 3.4 85 212 1.1 1.7 1028 0.0000 0.0000
09:05 6.1 3.8 85 165 0.6 1.1 1028 0.0000 0.0000
09:15 6.5 4.2 85 90 0.3 1.1 1027.9 0.0000 0.0000
09:25 6.9 4.4 84 90 0.3 1.4 1027.8 0.0000 0.0000
09:35 7.4 4.9 84 228 1.4 3.3 1027.6 0.0000 0.0000
09:45 8.1 5.6 84 226 3.6 6.4 1027.6 0.0000 0.0000
09:55 8.9 6.2 83 254 1.7 3.3 1027.4 0.0000 0.0000
10:05 9.7 6.8 82 124 1.7 3.1 1027.2 0.0000 0.0000
10:15 10.4 7.1 80 90 2.2 5 1027.2 0.0000 0.0000
10:25 11.6 8.1 79 80 4.4 9.7 1027.1 0.0000 0.0000
10:40 12.4 7.9 74 86 4.4 14.4 1027 0.0000 0.0000
10:50 12.8 8.1 73 102 4.7 10.3 1026.9 0.0000 0.0000
11:11 13.6 8.2 70 83 5.3 10.3 1026.7 0.0000 0.0000
11:21 13.9 8.3 69 74 5.8 10 1026.6 0.0000 0.0000
11:37 15.5 9.4 67 138 4.4 12.8 1026.2 0.0000 0.0000
11:47 16.7 9.6 63 122 3.3 6.1 1026.2 0.0000 0.0000
11:57 17.5 10.1 62 128 3.6 6.1 1026 0.0000 0.0000
12:07 18.1 10 59 135 3.6 7.5 1026.1 0.0000 0.0000
12:17 19.1 10.1 56 118 3.6 6.9 1026 0.0000 0.0000
12:28 20.2 10.6 54 121 3.1 6.1 1025.9 0.0000 0.0000
12:37 20.7 10.5 52 114 3.6 5 1025.9 0.0000 0.0000
12:47 21.2 10.4 50 103 3.9 7.8 1025.8 0.0000 0.0000
12:59 20.8 10 50 101 5.3 11.9 1025.7 0.0000 0.0000
13:09 20.4 9.3 49 86 6.4 9.4 1025.7 0.0000 0.0000
13:19 19.8 9.1 50 103 4.4 9.7 1025.7 0.0000 0.0000
13:29 18.9 8.6 51 117 1.7 3.9 1025.5 0.0000 0.0000
13:39 18.1 8.1 52 219 2.8 5 1025.6 0.0000 0.0000
13:50 17.2 7.5 53 222 1.1 2.8 1025.6 0.0000 0.0000
14:00 16.6 7.3 54 218 1.1 1.9 1025.4 0.0000 0.0000
14:09 16.5 7.2 54 331 1.7 3.9 1025.3 0.0000 0.0000
14:19 16.6 7.3 54 262 1.9 3.9 1025.1 0.0000 0.0000
14:30 16.8 7.5 54 193 2.2 5.3 1025 0.0000 0.0000
14:40 17.2 7.3 52 135 3.3 6.4 1025 0.0000 0.0000
14:49 17 7.1 52 149 1.9 4.7 1025.1 0.0000 0.0000
15:00 16.5 6.6 52 197 1.4 3.1 1025 0.0000 0.0000
15:20 15.4 5.9 53 48 1.1 3.3 1025.1 0.0000 0.0000
15:30 15 5.8 54 219 1.1 2.2 1025.2 0.0000 0.0000
15:40 14.8 5.9 55 218 1.4 1.9 1025 0.0000 0.0000
15:50 14.6 5.7 55 211 1.1 1.9 1025 0.0000 0.0000
16:00 14.3 5.4 55 211 1.4 1.9 1025.1 0.0000 0.0000
16:30 13.2 4.9 57 214 1.4 2.2 1024.8 0.0000 0.0000
16:40 13 5.2 59 215 1.4 2.2 1024.9 0.0000 0.0000
17:10 12.4 5.1 61 219 1.4 2.2 1025 0.0000 0.0000
17:31 12.1 5.3 63 237 1.4 2.2 1024.7 0.0000 0.0000
17:40 12 5.4 64 218 1.4 1.9 1024.7 0.0000 0.0000
17:50 11.9 5.3 64 220 1.4 1.9 1024.5 0.0000 0.0000
18:01 11.9 5.3 64 221 1.4 1.9 1024.4 0.0000 0.0000
18:11 11.8 5.2 64 218 1.4 2.2 1024.4 0.0000 0.0000
18:20 11.8 5.2 64 222 1.4 2.2 1024.6 0.0000 0.0000
18:31 11.6 5.3 65 222 1.4 1.9 1024.5 0.0000 0.0000
18:41 11.3 5 65 218 1.4 2.2 1024.5 0.0000 0.0000
18:51 10.9 4.8 66 225 1.1 1.9 1024.6 0.0000 0.0000
19:01 10.5 4.4 66 215 1.4 2.2 1024.6 0.0000 0.0000
19:11 10 3.9 66 219 1.4 2.2 1024.5 0.0000 0.0000
19:21 9.5 3.7 67 232 1.4 2.2 1024.5 0.0000 0.0000
19:42 8.5 3.1 69 219 1.4 2.2 1024.7 0.0000 0.0000
19:53 8.1 3 70 220 1.7 2.8 1024.7 0.0000 0.0000
20:03 7.8 2.9 71 215 1.9 3.1 1024.5 0.0000 0.0000
20:12 7.5 2.6 71 219 1.7 2.8 1024.6 0.0000 0.0000
20:23 7.2 2.5 72 222 1.7 2.2 1024.6 0.0000 0.0000
20:33 6.8 2.1 72 222 1.9 3.6 1024.6 0.0000 0.0000
20:43 6.6 2.1 73 218 1.9 3.6 1024.6 0.0000 0.0000
20:53 6.4 1.9 73 220 1.9 3.1 1024.6 0.0000 0.0000
21:03 6.1 1.8 74 219 1.9 3.1 1024.6 0.0000 0.0000
21:13 5.9 1.6 74 221 2.2 3.3 1024.7 0.0000 0.0000
21:23 5.7 1.4 74 220 1.9 3.1 1024.6 0.0000 0.0000
21:33 5.6 1.3 74 219 1.9 3.3 1024.6 0.0000 0.0000
21:43 5.5 1.2 74 223 1.9 3.1 1024.4 0.0000 0.0000
21:53 5.3 1 74 222 1.9 3.3 1024.4 0.0000 0.0000
22:03 5.2 1 74 223 1.9 3.1 1024.4 0.0000 0.0000
22:14 5 0.8 74 220 1.9 2.8 1024.4 0.0000 0.0000
22:24 4.8 0.8 75 220 1.9 2.8 1024.4 0.0000 0.0000
22:33 4.8 0.8 75 222 1.9 3.1 1024.2 0.0000 0.0000
22:44 4.7 0.5 74 223 1.9 3.3 1024.4 0.0000 0.0000
22:54 4.6 0.4 74 222 1.9 3.1 1024.3 0.0000 0.0000
23:04 4.4 0.4 75 220 1.9 3.1 1024.3 0.0000 0.0000
23:14 4.3 0.3 75 217 1.9 3.3 1024.3 0.0000 0.0000
23:24 4.2 0 74 218 1.9 3.1 1024.3 0.0000 0.0000
23:34 4 -0.2 74 225 1.7 3.1 1024.4 0.0000 0.0000
23:44 3.7 -0.4 74 217 1.9 3.3 1024.2 0.0000 0.0000
23:54 3.5 -0.6 74 221 1.9 3.1 1024.1 0.0000 0.0000

TAGESSTATISTIK

2019-03-24
TEMPERATUR
MITTEL
7.9
MAXIMUM
21.2
12:47
MINIMUM
1.3
04:26
LUFTDRUCK
MITTEL
1026.5
MAXIMUM
1029.7
00:01
MINIMUM
1024.1
23:54
TAUPUNKT
MITTEL
3.0
MAXIMUM
10.6
12:28
MINIMUM
-1.4
03:55
FEUCHTIGKEIT
MITTEL
72
MAXIMUM
85
07:45
MINIMUM
49
13:09
WINDSTÄRKE
MITTEL
2.2
MAXIMUM
6.4
13:09
WINDBÖE
MITTEL
3.8
MAXIMUM
14.4
10:40
WINDRICHTUNG
VORHERRSCHENDE
SW
77.4%
N
0.0
NO
0.8
O
9.0
SO
8.3
S
2.3
SW
77.4
W
1.5
NW
0.8
NIEDERSCHLAG
REGEN STUNDE
0.0
REGEN TAG
0.0
TEMPERATUR (°C)
MINIMUM
1.3
MAXIMUM
21.2
MITTEL
7.9
LUFTDRUCK (hpa)
MINIMUM
1024.1
MAXIMUM
1029.7
MITTEL
1026.5
MESSGERÄT